Elk River — WDE9599 — position and weather

sailwx.info

Track history (hours):
 
Tides and Currents Weather Stations Pressure Air Temp Water Temp Dewpoint Dewpoint Depression Visibility Wind Speed Wind Dir Waves Ship Positions

Elk River

Owner: Vane Line Bunkering, Inc., Philadelphia, PA. More information available from US FCC via Universal Licensing System and Coast Guard Vessel Documentation Center.

Last reported at 2017-Dec-15 06:00 UTC. Time now 2017-Dec-15 06:13 UTC.
Position N 39°54' W 075°12'.

Length 38 m; draft 4 m.

Type: Towing. MMSI: 367419080.

Date/timePositionNaut miles runAvg speedWind from/ knotsBaromVisibWave heightAir tempDewpointWater temp
2017-Dec-15 06:00N 39°54' W 075°12'0 0.0
2017-Dec-15 05:30N 39°54' W 075°12'0 0.0
2017-Dec-15 05:00N 39°54' W 075°12'0 0.0
2017-Dec-15 04:30N 39°54' W 075°12'0 0.0
2017-Dec-15 04:00N 39°54' W 075°12'0 0.0
2017-Dec-15 02:30N 39°54' W 075°12'0 0.0
2017-Dec-15 01:00N 39°54' W 075°12'0 0.0
2017-Dec-15 00:30N 39°54' W 075°12'0 0.0
2017-Dec-14 18:31N 39°54' W 075°12'0 0.0
2017-Dec-14 18:00N 39°54' W 075°12'0 0.0
2017-Dec-14 17:31N 39°54' W 075°12'0 0.0
2017-Dec-14 17:00N 39°54' W 075°12'0 0.0
2017-Dec-14 16:30N 39°54' W 075°12'0 0.0
2017-Dec-14 16:00N 39°54' W 075°12'0 0.0
2017-Dec-14 15:00N 39°54' W 075°12'0 0.2
2017-Dec-14 14:31N 39°54' W 075°12'3 5.0
2017-Dec-14 14:00N 39°51' W 075°14'510.1
2017-Dec-14 13:30N 39°51' W 075°21'510.4
2017-Dec-14 13:00N 39°48' W 075°26'5 9.4
2017-Dec-14 12:30N 39°44' W 075°30'1 2.7
2017-Dec-14 12:00N 39°43' W 075°30'0 0.0
2017-Dec-14 11:30N 39°43' W 075°30'0 0.0
2017-Dec-14 11:00N 39°43' W 075°30'0 0.0
2017-Dec-14 10:30N 39°43' W 075°30'0 0.1
2017-Dec-14 10:01N 39°43' W 075°30'0 0.3
2017-Dec-14 09:30N 39°43' W 075°30'0 0.2
2017-Dec-14 09:00N 39°43' W 075°30'0 0.0
2017-Dec-14 08:30N 39°43' W 075°30'0 0.0
2017-Dec-14 08:00N 39°43' W 075°30'0 0.0
2017-Dec-14 07:30N 39°43' W 075°30'0 0.0
2017-Dec-14 07:00N 39°43' W 075°30'1 2.6
2017-Dec-14 06:31N 39°44' W 075°30'5 9.5
2017-Dec-14 06:00N 39°48' W 075°26'4 8.7
2017-Dec-14 05:30N 39°50' W 075°22'4 8.8
2017-Dec-14 05:00N 39°51' W 075°16'4 8.3
2017-Dec-14 04:30N 39°53' W 075°12'2 3.4
2017-Dec-14 04:00N 39°55' W 075°13'1 2.2
2017-Dec-14 03:30N 39°54' W 075°12'0 0.5
2017-Dec-14 03:01N 39°54' W 075°13'0 0.2
2017-Dec-14 02:30N 39°54' W 075°12'0 0.1
2017-Dec-14 02:01N 39°54' W 075°12'0 0.1
2017-Dec-14 01:30N 39°54' W 075°12'1 2.4
2017-Dec-14 01:00N 39°53' W 075°11'3 6.3
2017-Dec-14 00:31N 39°55' W 075°08'4 7.1
2017-Dec-14 00:01N 39°58' W 075°07'2 3.4
2017-Dec-13 23:31N 39°59' W 075°04'4 7.6
2017-Dec-13 23:01N 39°56' W 075°08'3 7.0
2017-Dec-13 22:30N 39°53' W 075°10'2 3.4
2017-Dec-13 22:01N 39°54' W 075°12'0 0.0
2017-Dec-13 21:31N 39°54' W 075°12'1 2.9
2017-Dec-13 21:01N 39°55' W 075°13'1 2.0
2017-Dec-13 20:30N 39°54' W 075°12'0 0.0
2017-Dec-13 20:01N 39°54' W 075°12'0 0.0
2017-Dec-13 19:31N 39°54' W 075°12'0 0.0
2017-Dec-13 19:00N 39°54' W 075°12'0 0.0
2017-Dec-13 18:30N 39°54' W 075°12'0 0.0
2017-Dec-13 18:00N 39°54' W 075°12'0 0.1
2017-Dec-13 17:31N 39°54' W 075°12'0 0.0
2017-Dec-13 17:00N 39°54' W 075°12'0 0.0
2017-Dec-13 16:30N 39°54' W 075°12'0 0.0
2017-Dec-13 16:01N 39°54' W 075°12'0 0.0
2017-Dec-13 15:30N 39°54' W 075°12'0 0.0
2017-Dec-13 15:00N 39°54' W 075°12'0 0.0
2017-Dec-13 14:30N 39°54' W 075°12'0 0.0
2017-Dec-13 14:00N 39°54' W 075°12'0 0.0
2017-Dec-13 13:31N 39°54' W 075°12'0 0.0
2017-Dec-13 13:00N 39°54' W 075°12'0 0.0
2017-Dec-13 12:30N 39°54' W 075°12'0 0.0
2017-Dec-13 12:00N 39°54' W 075°12'0 0.0
2017-Dec-13 11:31N 39°54' W 075°12'2 3.9
2017-Dec-13 11:00N 39°53' W 075°10'0 0.4
2017-Dec-13 10:30N 39°53' W 075°10'2 4.3
2017-Dec-13 10:00N 39°54' W 075°12'0 0.1
2017-Dec-13 09:30N 39°54' W 075°12'0 0.2
2017-Dec-13 09:01N 39°54' W 075°12'0 0.0
2017-Dec-13 08:30N 39°54' W 075°12'0 0.0
2017-Dec-13 08:01N 39°54' W 075°12'0 0.0
2017-Dec-13 07:31N 39°54' W 075°12'0 0.0
2017-Dec-13 07:01N 39°54' W 075°12'0 0.0
2017-Dec-13 06:30N 39°54' W 075°12'0 0.0
2017-Dec-13 06:01N 39°54' W 075°12'0 0.0
2017-Dec-13 05:30N 39°54' W 075°12'0 0.0
2017-Dec-13 05:01N 39°54' W 075°12'0 0.0
2017-Dec-13 04:30N 39°54' W 075°12'3 5.5
2017-Dec-13 04:01N 39°51' W 075°14'4 8.8
2017-Dec-13 03:31N 39°51' W 075°20'4 7.6
2017-Dec-13 03:01N 39°49' W 075°24'1 1.7
2017-Dec-13 02:31N 39°49' W 075°23'4 7.7
2017-Dec-13 02:00N 39°51' W 075°19'3 6.5
2017-Dec-13 01:30N 39°51' W 075°15'3 5.8
2017-Dec-13 01:01N 39°54' W 075°12'0 0.0
2017-Dec-13 00:30N 39°54' W 075°12'0 0.0
2017-Dec-13 00:00N 39°54' W 075°12'0 0.0
2017-Dec-12 23:30N 39°54' W 075°12'0 0.0
2017-Dec-12 23:00N 39°54' W 075°12'0 0.8
2017-Dec-12 22:30N 39°54' W 075°12'1 2.8
2017-Dec-12 22:00N 39°52' W 075°12'0 0.9
2017-Dec-12 21:30N 39°52' W 075°13'3 5.2
2017-Dec-12 21:00N 39°51' W 075°16'4 7.3
2017-Dec-12 20:31N 39°51' W 075°21'4 7.4
2017-Dec-12 20:00N 39°48' W 075°25'4 7.4
2017-Dec-12 19:30N 39°46' W 075°28'4 7.1
2017-Dec-12 19:00N 39°43' W 075°30'0 1.0
2017-Dec-12 18:30N 39°43' W 075°31'0 0.0
2017-Dec-12 18:00N 39°43' W 075°31'0 0.0
2017-Dec-12 17:30N 39°43' W 075°31'0 0.0
2017-Dec-12 17:00N 39°43' W 075°31'0 0.0
2017-Dec-12 16:25N 39°43' W 075°31'0 0.0
2017-Dec-12 15:59N 39°43' W 075°31'0 0.0
2017-Dec-12 15:25N 39°43' W 075°31'0 0.0
2017-Dec-12 15:00N 39°43' W 075°31'0 0.0
2017-Dec-12 14:28N 39°43' W 075°31'0 0.0
2017-Dec-12 14:00N 39°43' W 075°31'0 0.0
2017-Dec-12 13:30N 39°43' W 075°31'0 0.0
2017-Dec-12 13:00N 39°43' W 075°31'2 4.2
2017-Dec-12 12:30N 39°45' W 075°30'4 6.7
2017-Dec-12 11:59N 39°48' W 075°27'3 6.5
2017-Dec-12 11:28N 39°49' W 075°23'3 6.0
2017-Dec-12 10:56N 39°51' W 075°19'3 6.4
2017-Dec-12 10:29N 39°51' W 075°16'4 8.2
2017-Dec-12 10:00N 39°53' W 075°11'3 6.0
2017-Dec-12 09:27N 39°55' W 075°08'5 8.7
2017-Dec-12 08:55N 39°59' W 075°04'1 1.0
2017-Dec-12 08:25N 39°59' W 075°05'0 0.0
2017-Dec-12 07:55N 39°59' W 075°05'0 0.0
2017-Dec-12 07:30N 39°59' W 075°05'0 0.0
2017-Dec-12 07:00N 39°59' W 075°05'0 0.0
2017-Dec-12 06:30N 39°59' W 075°05'0 0.0
2017-Dec-12 05:59N 39°59' W 075°05'0 0.0
2017-Dec-12 05:30N 39°59' W 075°05'0 0.0
2017-Dec-12 04:57N 39°59' W 075°05'0 0.0
2017-Dec-12 04:27N 39°59' W 075°05'0 0.0
2017-Dec-12 03:56N 39°59' W 075°05'0 0.0
2017-Dec-12 03:30N 39°59' W 075°05'0 0.0
2017-Dec-12 03:00N 39°59' W 075°05'0 0.0
2017-Dec-12 02:30N 39°59' W 075°05'0 0.0
2017-Dec-12 02:01N 39°59' W 075°05'0 1.0
2017-Dec-12 01:31N 39°59' W 075°04'4 7.6
2017-Dec-12 01:01N 39°56' W 075°08'4 7.9
2017-Dec-12 00:30N 39°53' W 075°11'1 2.9
2017-Dec-12 00:00N 39°54' W 075°12'2 3.0
2017-Dec-11 23:30N 39°52' W 075°13'0 0.0
2017-Dec-11 23:00N 39°52' W 075°12'0 0.0
2017-Dec-11 22:30N 39°52' W 075°12'0 0.0
2017-Dec-11 22:00N 39°52' W 075°12'0 0.0
2017-Dec-11 21:30N 39°52' W 075°12'0 0.0
2017-Dec-11 21:00N 39°52' W 075°12'0 0.1
2017-Dec-11 20:30N 39°52' W 075°12'0 0.1
2017-Dec-11 20:01N 39°52' W 075°13'0 0.0
2017-Dec-11 19:30N 39°52' W 075°12'0 0.1
2017-Dec-11 19:00N 39°52' W 075°12'0 0.0
2017-Dec-11 18:31N 39°52' W 075°12'0 0.2
2017-Dec-11 18:00N 39°52' W 075°13'0 0.2
2017-Dec-11 17:30N 39°52' W 075°13'2 3.5
2017-Dec-11 17:00N 39°54' W 075°12'0 0.3
2017-Dec-11 16:30N 39°54' W 075°12'0 0.9
2017-Dec-11 16:00N 39°54' W 075°12'0 0.0
2017-Dec-11 15:30N 39°54' W 075°12'1 1.2
2017-Dec-11 15:00N 39°53' W 075°12'0 0.0
2017-Dec-11 14:30N 39°53' W 075°12'0 0.0
2017-Dec-11 14:00N 39°53' W 075°12'0 0.0
2017-Dec-11 13:31N 39°53' W 075°12'0 0.0
2017-Dec-11 13:01N 39°53' W 075°12'0 0.0
2017-Dec-11 12:30N 39°53' W 075°12'0 0.0
2017-Dec-11 12:00N 39°53' W 075°12'0 0.0
2017-Dec-11 11:30N 39°53' W 075°12'0 0.0
2017-Dec-11 11:00N 39°53' W 075°12'0 0.0
2017-Dec-11 10:30N 39°53' W 075°12'0 0.0
2017-Dec-11 10:00N 39°53' W 075°12'0 0.0
2017-Dec-11 09:30N 39°53' W 075°12'3 5.0
2017-Dec-11 09:00N 39°53' W 075°08'0 0.9
2017-Dec-11 08:30N 39°54' W 075°08'2 3.1
2017-Dec-11 08:00N 39°53' W 075°10'2 4.1
2017-Dec-11 07:31N 39°54' W 075°12'0 0.0
2017-Dec-11 07:01N 39°54' W 075°12'0 0.0
2017-Dec-11 06:31N 39°54' W 075°12'0 0.0
2017-Dec-11 06:01N 39°54' W 075°12'0 0.0
2017-Dec-11 05:30N 39°54' W 075°12'0 0.0
2017-Dec-11 05:00N 39°54' W 075°12'0 0.0
2017-Dec-11 04:31N 39°54' W 075°12'0 0.0
2017-Dec-11 04:00N 39°54' W 075°12'0 0.0
2017-Dec-11 03:30N 39°54' W 075°12'0 0.0
2017-Dec-11 03:00N 39°54' W 075°12'0 0.0
2017-Dec-11 02:30N 39°54' W 075°12'0 0.0
2017-Dec-11 02:00N 39°54' W 075°12'0 0.0
2017-Dec-11 01:30N 39°54' W 075°12'0 0.0
2017-Dec-11 01:00N 39°54' W 075°12'0 0.0
2017-Dec-11 00:30N 39°54' W 075°12'0 0.1
2017-Dec-11 00:00N 39°54' W 075°12'2 3.5
2017-Dec-10 23:30N 39°52' W 075°13'0 0.1
2017-Dec-10 23:00N 39°52' W 075°13'0 0.0
2017-Dec-10 22:30N 39°52' W 075°13'0 0.0
2017-Dec-10 22:01N 39°52' W 075°13'0 0.0
2017-Dec-10 21:31N 39°52' W 075°13'0 0.0
2017-Dec-10 21:00N 39°52' W 075°13'0 0.1
2017-Dec-10 20:30N 39°52' W 075°13'0 0.0
2017-Dec-10 20:00N 39°52' W 075°13'0 0.3
2017-Dec-10 19:30N 39°52' W 075°13'0 0.1
2017-Dec-10 19:00N 39°52' W 075°13'0 0.1
2017-Dec-10 18:30N 39°52' W 075°13'0 0.3
2017-Dec-10 18:00N 39°52' W 075°13'0 0.2
2017-Dec-10 17:31N 39°52' W 075°13'2 4.1
2017-Dec-10 17:00N 39°54' W 075°12'1 2.0
2017-Dec-10 16:30N 39°55' W 075°13'0 0.0
2017-Dec-10 16:00N 39°55' W 075°13'0 0.0
2017-Dec-10 15:30N 39°55' W 075°13'0 0.0
2017-Dec-10 15:01N 39°55' W 075°13'0 0.0
2017-Dec-10 14:30N 39°55' W 075°13'0 0.0
2017-Dec-10 14:00N 39°55' W 075°13'0 0.0
2017-Dec-10 13:30N 39°55' W 075°13'0 0.0
2017-Dec-10 13:01N 39°55' W 075°13'0 0.0
2017-Dec-10 12:30N 39°55' W 075°13'0 0.0
2017-Dec-10 12:00N 39°55' W 075°13'0 0.0
2017-Dec-10 11:30N 39°55' W 075°13'0 0.0
2017-Dec-10 11:00N 39°55' W 075°13'1 2.1
2017-Dec-10 10:30N 39°54' W 075°12'0 0.0
2017-Dec-10 10:00N 39°54' W 075°12'0 0.0
2017-Dec-10 09:31N 39°54' W 075°12'0 0.0
2017-Dec-10 09:00N 39°54' W 075°12'0 0.0
2017-Dec-10 08:30N 39°54' W 075°12'0 0.0
2017-Dec-10 08:00N 39°54' W 075°12'0 0.0
2017-Dec-10 07:30N 39°54' W 075°12'0 0.0
2017-Dec-10 07:01N 39°54' W 075°12'0 0.0
2017-Dec-10 06:31N 39°54' W 075°12'0 0.0
2017-Dec-10 06:01N 39°54' W 075°12'0 0.0
2017-Dec-10 05:31N 39°54' W 075°12'0 0.0
2017-Dec-10 05:01N 39°54' W 075°12'0 0.0
2017-Dec-10 04:31N 39°54' W 075°12'0 0.0
2017-Dec-10 04:00N 39°54' W 075°12'0 0.0
2017-Dec-10 03:30N 39°54' W 075°12'0 0.0
2017-Dec-10 03:01N 39°54' W 075°12'0 0.0
2017-Dec-10 02:30N 39°54' W 075°12'0 0.0
2017-Dec-10 02:01N 39°54' W 075°12'0 0.0
2017-Dec-10 01:30N 39°54' W 075°12'0 0.0
2017-Dec-10 01:00N 39°54' W 075°12'0 0.1
2017-Dec-10 00:31N 39°54' W 075°12'0 0.0
2017-Dec-10 00:01N 39°54' W 075°12'0 0.0
2017-Dec-09 23:30N 39°54' W 075°12'0 0.0
2017-Dec-09 23:01N 39°54' W 075°12'0 0.0
2017-Dec-09 22:30N 39°54' W 075°12'0 0.0
2017-Dec-09 22:00N 39°54' W 075°12'0 0.0
2017-Dec-09 21:30N 39°54' W 075°12'0 0.0
2017-Dec-09 21:01N 39°54' W 075°12'0 0.0
2017-Dec-09 20:31N 39°54' W 075°12'0 0.0
2017-Dec-09 20:00N 39°54' W 075°12'0 0.0
2017-Dec-09 19:30N 39°54' W 075°12'0 0.0
2017-Dec-09 19:01N 39°54' W 075°12'0 0.0
2017-Dec-09 18:31N 39°54' W 075°12'0 0.0
2017-Dec-09 18:01N 39°54' W 075°12'0 0.0
2017-Dec-09 17:31N 39°54' W 075°12'0 0.0
2017-Dec-09 17:01N 39°54' W 075°12'1 1.2
2017-Dec-09 16:30N 39°53' W 075°12'0 0.0
2017-Dec-09 16:01N 39°53' W 075°12'2 3.0
2017-Dec-09 15:30N 39°55' W 075°13'2 3.0
2017-Dec-09 15:00N 39°53' W 075°12'0 0.2
2017-Dec-09 14:31N 39°54' W 075°12'0 0.0
2017-Dec-09 14:01N 39°54' W 075°12'0 0.0
2017-Dec-09 13:31N 39°54' W 075°12'0 0.0
2017-Dec-09 13:00N 39°54' W 075°12'0 0.0
2017-Dec-09 12:31N 39°54' W 075°12'0 0.0
2017-Dec-09 12:01N 39°54' W 075°12'0 0.0
2017-Dec-09 11:31N 39°54' W 075°12'0 0.0
2017-Dec-09 11:01N 39°54' W 075°12'0 0.0
2017-Dec-09 10:31N 39°54' W 075°12'0 0.0
2017-Dec-09 10:01N 39°54' W 075°12'0 0.0
2017-Dec-09 09:31N 39°54' W 075°12'0 0.3
2017-Dec-09 09:00N 39°53' W 075°12'4 8.8
2017-Dec-09 08:30N 39°51' W 075°16'5 9.6
2017-Dec-09 08:00N 39°50' W 075°22'4 8.3
2017-Dec-09 07:30N 39°47' W 075°27'5 9.9
2017-Dec-09 07:00N 39°43' W 075°30'0 0.6
2017-Dec-09 06:30N 39°43' W 075°30'0 0.1
2017-Dec-09 06:00N 39°43' W 075°30'0 0.2
2017-Dec-09 05:30N 39°43' W 075°30'0 0.3
2017-Dec-09 05:00N 39°43' W 075°30'0 0.1
2017-Dec-09 04:30N 39°43' W 075°30'0 0.0
2017-Dec-09 04:00N 39°43' W 075°30'0 0.0
2017-Dec-09 03:30N 39°43' W 075°30'0 0.0
2017-Dec-09 03:00N 39°43' W 075°30'0 0.0
2017-Dec-09 02:30N 39°43' W 075°30'0 0.0
2017-Dec-09 02:00N 39°43' W 075°30'0 0.0
2017-Dec-09 01:30N 39°43' W 075°30'0 0.0
2017-Dec-09 01:00N 39°43' W 075°30'0 0.0
2017-Dec-09 00:30N 39°43' W 075°30'0 0.0
2017-Dec-09 00:00N 39°43' W 075°30'1 1.0
2017-Dec-08 23:31N 39°43' W 075°31'0 0.0
2017-Dec-08 23:00N 39°43' W 075°31'0 0.0
2017-Dec-08 22:30N 39°43' W 075°31'4 7.2
2017-Dec-08 22:00N 39°46' W 075°28'5 9.6
2017-Dec-08 21:30N 39°49' W 075°24'4 8.4
2017-Dec-08 21:00N 39°51' W 075°19'4 8.2
2017-Dec-08 20:30N 39°52' W 075°14'2 4.2
2017-Dec-08 20:00N 39°54' W 075°12'2 3.3
2017-Dec-08 19:30N 39°52' W 075°13'510.5
2017-Dec-08 19:00N 39°51' W 075°20'611.4
2017-Dec-08 18:30N 39°48' W 075°26'611.1
2017-Dec-08 18:00N 39°43' W 075°30'1 1.6
2017-Dec-08 17:30N 39°43' W 075°30'0 0.0
2017-Dec-08 17:00N 39°43' W 075°30'0 0.2
2017-Dec-08 16:30N 39°43' W 075°30'0 0.1
2017-Dec-08 16:00N 39°43' W 075°30'0 0.0
2017-Dec-08 15:30N 39°43' W 075°30'0 0.0
2017-Dec-08 15:00N 39°43' W 075°30'0 0.0
2017-Dec-08 14:30N 39°43' W 075°30'0 0.0
2017-Dec-08 14:00N 39°43' W 075°30'0 0.0
2017-Dec-08 13:30N 39°43' W 075°30'0 0.0
2017-Dec-08 13:00N 39°43' W 075°30'0 0.0
2017-Dec-08 12:30N 39°43' W 075°30'0 0.0
2017-Dec-08 12:00N 39°43' W 075°30'1 1.7
2017-Dec-08 11:31N 39°42' W 075°31'1 2.4
2017-Dec-08 11:00N 39°43' W 075°30'2 4.7
2017-Dec-08 10:30N 39°45' W 075°29'4 8.9
2017-Dec-08 10:00N 39°48' W 075°25'4 8.4
2017-Dec-08 09:30N 39°51' W 075°21'4 7.4
2017-Dec-08 09:00N 39°51' W 075°16'4 7.6
2017-Dec-08 08:30N 39°53' W 075°12'3 6.3
2017-Dec-08 08:01N 39°54' W 075°08'3 6.9
2017-Dec-08 07:30N 39°58' W 075°08'3 6.1
2017-Dec-08 07:01N 39°59' W 075°04'3 6.4
2017-Dec-08 06:30N 39°58' W 075°08'5 9.8
2017-Dec-08 06:01N 39°53' W 075°09'2 3.7
2017-Dec-08 05:31N 39°53' W 075°12'3 5.6
2017-Dec-08 05:01N 39°54' W 075°08'4 7.9
2017-Dec-08 04:31N 39°58' W 075°08'2 4.0
2017-Dec-08 04:01N 39°59' W 075°05'0 0.0
2017-Dec-08 03:31N 39°59' W 075°05'0 0.0
2017-Dec-08 03:01N 39°59' W 075°05'0 0.0
2017-Dec-08 02:30N 39°59' W 075°05'0 0.0
2017-Dec-08 02:01N 39°59' W 075°05'0 0.0
2017-Dec-08 01:31N 39°59' W 075°05'0 0.0
2017-Dec-08 01:00N 39°59' W 075°05'0 0.0
2017-Dec-08 00:30N 39°59' W 075°05'0 0.0
2017-Dec-08 00:00N 39°59' W 075°05'1 2.0
2017-Dec-07 23:31N 39°59' W 075°04'1 1.3
2017-Dec-07 23:00N 39°59' W 075°05'4 8.0
2017-Dec-07 22:31N 39°55' W 075°08'4 7.5
2017-Dec-07 22:00N 39°53' W 075°11'3 5.2
2017-Dec-07 21:31N 39°51' W 075°14'3 5.6
2017-Dec-07 21:00N 39°54' W 075°12'0 0.0
2017-Dec-07 20:30N 39°54' W 075°12'0 0.2
2017-Dec-07 20:00N 39°54' W 075°12'3 5.4
2017-Dec-07 19:30N 39°53' W 075°09'4 7.7
2017-Dec-07 19:00N 39°57' W 075°08'4 7.4
2017-Dec-07 18:31N 39°59' W 075°04'0 0.5
2017-Dec-07 18:01N 39°59' W 075°04'4 7.4
2017-Dec-07 17:31N 39°56' W 075°08'4 7.4
2017-Dec-07 17:00N 39°53' W 075°10'4 8.5
2017-Dec-07 16:31N 39°51' W 075°15'4 8.1
2017-Dec-07 16:00N 39°51' W 075°20'4 7.7
2017-Dec-07 15:31N 39°49' W 075°24'4 7.2
2017-Dec-07 15:00N 39°46' W 075°28'4 7.1
2017-Dec-07 14:30N 39°43' W 075°30'3 6.7
2017-Dec-07 14:00N 39°40' W 075°32'3 6.7
2017-Dec-07 13:30N 39°38' W 075°34'3 6.5
2017-Dec-07 13:00N 39°35' W 075°33'4 7.7
2017-Dec-07 12:30N 39°33' W 075°38'510.0
2017-Dec-07 12:00N 39°32' W 075°44'4 8.0
2017-Dec-07 11:30N 39°32' W 075°49'4 8.2
2017-Dec-07 10:59N 39°30' W 075°55'4 7.8
2017-Dec-07 10:31N 39°28' W 075°58'4 8.2
2017-Dec-07 10:00N 39°25' W 076°02'4 7.5
2017-Dec-07 09:30N 39°23' W 076°06'4 7.0
2017-Dec-07 09:00N 39°21' W 076°10'3 7.0
2017-Dec-07 08:30N 39°19' W 076°13'4 7.2
2017-Dec-07 07:53N 39°14' W 076°14'7 7.5
2017-Dec-07 06:56N 39°09' W 076°20'4 8.7
2017-Dec-07 06:30N 39°10' W 076°25'4 8.9
2017-Dec-07 06:00N 39°12' W 076°30'4 7.7
2017-Dec-07 05:30N 39°13' W 076°34'0 0.9
2017-Dec-07 05:00N 39°13' W 076°35'0 0.0
2017-Dec-07 04:13N 39°13' W 076°35'0 0.0
2017-Dec-07 04:00N 39°13' W 076°35'0 0.0
2017-Dec-07 03:24N 39°13' W 076°35'0 0.0
2017-Dec-07 02:13N 39°13' W 076°35'0 0.0
2017-Dec-07 02:00N 39°13' W 076°35'0 0.0
2017-Dec-07 01:19N 39°13' W 076°35'0 0.0
2017-Dec-07 00:54N 39°13' W 076°35'0 0.0
2017-Dec-06 23:12N 39°13' W 076°35'1 5.1
2017-Dec-06 23:00N 39°13' W 076°34'1 2.7
2017-Dec-06 22:30N 39°15' W 076°34'0 0.0
2017-Dec-06 22:00N 39°15' W 076°34'0 0.0
2017-Dec-06 21:30N 39°15' W 076°34'0 0.0
2017-Dec-06 21:00N 39°15' W 076°34'  
Track history (hours):
 
Tides and Currents Weather Stations Pressure Air Temp Water Temp Dewpoint Dewpoint Depression Visibility Wind Speed Wind Dir Waves Ship Positions

Elk River

Owner: Vane Line Bunkering, Inc., Philadelphia, PA. More information available from US FCC via Universal Licensing System and Coast Guard Vessel Documentation Center.

Last reported at 2017-Dec-15 06:00 UTC. Time now 2017-Dec-15 06:13 UTC.
Position N 39°54' W 075°12'.

Length 38 m; draft 4 m.

Type: Towing. MMSI: 367419080.

Date/timePositionNaut miles runAvg speedWind from/ knotsBaromVisibWave heightAir tempDewpointWater temp
2017-Dec-15 06:00N 39°54' W 075°12'0 0.0
2017-Dec-15 05:30N 39°54' W 075°12'0 0.0
2017-Dec-15 05:00N 39°54' W 075°12'0 0.0
2017-Dec-15 04:30N 39°54' W 075°12'0 0.0
2017-Dec-15 04:00N 39°54' W 075°12'0 0.0
2017-Dec-15 02:30N 39°54' W 075°12'0 0.0
2017-Dec-15 01:00N 39°54' W 075°12'0 0.0
2017-Dec-15 00:30N 39°54' W 075°12'0 0.0
2017-Dec-14 18:31N 39°54' W 075°12'0 0.0
2017-Dec-14 18:00N 39°54' W 075°12'0 0.0
2017-Dec-14 17:31N 39°54' W 075°12'0 0.0
2017-Dec-14 17:00N 39°54' W 075°12'0 0.0
2017-Dec-14 16:30N 39°54' W 075°12'0 0.0
2017-Dec-14 16:00N 39°54' W 075°12'0 0.0
2017-Dec-14 15:00N 39°54' W 075°12'0 0.2
2017-Dec-14 14:31N 39°54' W 075°12'3 5.0
2017-Dec-14 14:00N 39°51' W 075°14'510.1
2017-Dec-14 13:30N 39°51' W 075°21'510.4
2017-Dec-14 13:00N 39°48' W 075°26'5 9.4
2017-Dec-14 12:30N 39°44' W 075°30'1 2.7
2017-Dec-14 12:00N 39°43' W 075°30'0 0.0
2017-Dec-14 11:30N 39°43' W 075°30'0 0.0
2017-Dec-14 11:00N 39°43' W 075°30'0 0.0
2017-Dec-14 10:30N 39°43' W 075°30'0 0.1
2017-Dec-14 10:01N 39°43' W 075°30'0 0.3
2017-Dec-14 09:30N 39°43' W 075°30'0 0.2
2017-Dec-14 09:00N 39°43' W 075°30'0 0.0
2017-Dec-14 08:30N 39°43' W 075°30'0 0.0
2017-Dec-14 08:00N 39°43' W 075°30'0 0.0
2017-Dec-14 07:30N 39°43' W 075°30'0 0.0
2017-Dec-14 07:00N 39°43' W 075°30'1 2.6
2017-Dec-14 06:31N 39°44' W 075°30'5 9.5
2017-Dec-14 06:00N 39°48' W 075°26'4 8.7
2017-Dec-14 05:30N 39°50' W 075°22'4 8.8
2017-Dec-14 05:00N 39°51' W 075°16'4 8.3
2017-Dec-14 04:30N 39°53' W 075°12'2 3.4
2017-Dec-14 04:00N 39°55' W 075°13'1 2.2
2017-Dec-14 03:30N 39°54' W 075°12'0 0.5
2017-Dec-14 03:01N 39°54' W 075°13'0 0.2
2017-Dec-14 02:30N 39°54' W 075°12'0 0.1
2017-Dec-14 02:01N 39°54' W 075°12'0 0.1
2017-Dec-14 01:30N 39°54' W 075°12'1 2.4
2017-Dec-14 01:00N 39°53' W 075°11'3 6.3
2017-Dec-14 00:31N 39°55' W 075°08'4 7.1
2017-Dec-14 00:01N 39°58' W 075°07'2 3.4
2017-Dec-13 23:31N 39°59' W 075°04'4 7.6
2017-Dec-13 23:01N 39°56' W 075°08'3 7.0
2017-Dec-13 22:30N 39°53' W 075°10'2 3.4
2017-Dec-13 22:01N 39°54' W 075°12'0 0.0
2017-Dec-13 21:31N 39°54' W 075°12'1 2.9
2017-Dec-13 21:01N 39°55' W 075°13'1 2.0
2017-Dec-13 20:30N 39°54' W 075°12'0 0.0
2017-Dec-13 20:01N 39°54' W 075°12'0 0.0
2017-Dec-13 19:31N 39°54' W 075°12'0 0.0
2017-Dec-13 19:00N 39°54' W 075°12'0 0.0
2017-Dec-13 18:30N 39°54' W 075°12'0 0.0
2017-Dec-13 18:00N 39°54' W 075°12'0 0.1
2017-Dec-13 17:31N 39°54' W 075°12'0 0.0
2017-Dec-13 17:00N 39°54' W 075°12'0 0.0
2017-Dec-13 16:30N 39°54' W 075°12'0 0.0
2017-Dec-13 16:01N 39°54' W 075°12'0 0.0
2017-Dec-13 15:30N 39°54' W 075°12'0 0.0
2017-Dec-13 15:00N 39°54' W 075°12'0 0.0
2017-Dec-13 14:30N 39°54' W 075°12'0 0.0
2017-Dec-13 14:00N 39°54' W 075°12'0 0.0
2017-Dec-13 13:31N 39°54' W 075°12'0 0.0
2017-Dec-13 13:00N 39°54' W 075°12'0 0.0
2017-Dec-13 12:30N 39°54' W 075°12'0 0.0
2017-Dec-13 12:00N 39°54' W 075°12'0 0.0
2017-Dec-13 11:31N 39°54' W 075°12'2 3.9
2017-Dec-13 11:00N 39°53' W 075°10'0 0.4
2017-Dec-13 10:30N 39°53' W 075°10'2 4.3
2017-Dec-13 10:00N 39°54' W 075°12'0 0.1
2017-Dec-13 09:30N 39°54' W 075°12'0 0.2
2017-Dec-13 09:01N 39°54' W 075°12'0 0.0
2017-Dec-13 08:30N 39°54' W 075°12'0 0.0
2017-Dec-13 08:01N 39°54' W 075°12'0 0.0
2017-Dec-13 07:31N 39°54' W 075°12'0 0.0
2017-Dec-13 07:01N 39°54' W 075°12'0 0.0
2017-Dec-13 06:30N 39°54' W 075°12'0 0.0
2017-Dec-13 06:01N 39°54' W 075°12'0 0.0
2017-Dec-13 05:30N 39°54' W 075°12'0 0.0
2017-Dec-13 05:01N 39°54' W 075°12'0 0.0
2017-Dec-13 04:30N 39°54' W 075°12'3 5.5
2017-Dec-13 04:01N 39°51' W 075°14'4 8.8
2017-Dec-13 03:31N 39°51' W 075°20'4 7.6
2017-Dec-13 03:01N 39°49' W 075°24'1 1.7
2017-Dec-13 02:31N 39°49' W 075°23'4 7.7
2017-Dec-13 02:00N 39°51' W 075°19'3 6.5
2017-Dec-13 01:30N 39°51' W 075°15'3 5.8
2017-Dec-13 01:01N 39°54' W 075°12'0 0.0
2017-Dec-13 00:30N 39°54' W 075°12'0 0.0
2017-Dec-13 00:00N 39°54' W 075°12'0 0.0
2017-Dec-12 23:30N 39°54' W 075°12'0 0.0
2017-Dec-12 23:00N 39°54' W 075°12'0 0.8
2017-Dec-12 22:30N 39°54' W 075°12'1 2.8
2017-Dec-12 22:00N 39°52' W 075°12'0 0.9
2017-Dec-12 21:30N 39°52' W 075°13'3 5.2
2017-Dec-12 21:00N 39°51' W 075°16'4 7.3
2017-Dec-12 20:31N 39°51' W 075°21'4 7.4
2017-Dec-12 20:00N 39°48' W 075°25'4 7.4
2017-Dec-12 19:30N 39°46' W 075°28'4 7.1
2017-Dec-12 19:00N 39°43' W 075°30'0 1.0
2017-Dec-12 18:30N 39°43' W 075°31'0 0.0
2017-Dec-12 18:00N 39°43' W 075°31'0 0.0
2017-Dec-12 17:30N 39°43' W 075°31'0 0.0
2017-Dec-12 17:00N 39°43' W 075°31'0 0.0
2017-Dec-12 16:25N 39°43' W 075°31'0 0.0
2017-Dec-12 15:59N 39°43' W 075°31'0 0.0
2017-Dec-12 15:25N 39°43' W 075°31'0 0.0
2017-Dec-12 15:00N 39°43' W 075°31'0 0.0
2017-Dec-12 14:28N 39°43' W 075°31'0 0.0
2017-Dec-12 14:00N 39°43' W 075°31'0 0.0
2017-Dec-12 13:30N 39°43' W 075°31'0 0.0
2017-Dec-12 13:00N 39°43' W 075°31'2 4.2
2017-Dec-12 12:30N 39°45' W 075°30'4 6.7
2017-Dec-12 11:59N 39°48' W 075°27'3 6.5
2017-Dec-12 11:28N 39°49' W 075°23'3 6.0
2017-Dec-12 10:56N 39°51' W 075°19'3 6.4
2017-Dec-12 10:29N 39°51' W 075°16'4 8.2
2017-Dec-12 10:00N 39°53' W 075°11'3 6.0
2017-Dec-12 09:27N 39°55' W 075°08'5 8.7
2017-Dec-12 08:55N 39°59' W 075°04'1 1.0
2017-Dec-12 08:25N 39°59' W 075°05'0 0.0
2017-Dec-12 07:55N 39°59' W 075°05'0 0.0
2017-Dec-12 07:30N 39°59' W 075°05'0 0.0
2017-Dec-12 07:00N 39°59' W 075°05'0 0.0
2017-Dec-12 06:30N 39°59' W 075°05'0 0.0
2017-Dec-12 05:59N 39°59' W 075°05'0 0.0
2017-Dec-12 05:30N 39°59' W 075°05'0 0.0
2017-Dec-12 04:57N 39°59' W 075°05'0 0.0
2017-Dec-12 04:27N 39°59' W 075°05'0 0.0
2017-Dec-12 03:56N 39°59' W 075°05'0 0.0
2017-Dec-12 03:30N 39°59' W 075°05'0 0.0
2017-Dec-12 03:00N 39°59' W 075°05'0 0.0
2017-Dec-12 02:30N 39°59' W 075°05'0 0.0
2017-Dec-12 02:01N 39°59' W 075°05'0 1.0
2017-Dec-12 01:31N 39°59' W 075°04'4 7.6
2017-Dec-12 01:01N 39°56' W 075°08'4 7.9
2017-Dec-12 00:30N 39°53' W 075°11'1 2.9
2017-Dec-12 00:00N 39°54' W 075°12'2 3.0
2017-Dec-11 23:30N 39°52' W 075°13'0 0.0
2017-Dec-11 23:00N 39°52' W 075°12'0 0.0
2017-Dec-11 22:30N 39°52' W 075°12'0 0.0
2017-Dec-11 22:00N 39°52' W 075°12'0 0.0
2017-Dec-11 21:30N 39°52' W 075°12'0 0.0
2017-Dec-11 21:00N 39°52' W 075°12'0 0.1
2017-Dec-11 20:30N 39°52' W 075°12'0 0.1
2017-Dec-11 20:01N 39°52' W 075°13'0 0.0
2017-Dec-11 19:30N 39°52' W 075°12'0 0.1
2017-Dec-11 19:00N 39°52' W 075°12'0 0.0
2017-Dec-11 18:31N 39°52' W 075°12'0 0.2
2017-Dec-11 18:00N 39°52' W 075°13'0 0.2
2017-Dec-11 17:30N 39°52' W 075°13'2 3.5
2017-Dec-11 17:00N 39°54' W 075°12'0 0.3
2017-Dec-11 16:30N 39°54' W 075°12'0 0.9
2017-Dec-11 16:00N 39°54' W 075°12'0 0.0
2017-Dec-11 15:30N 39°54' W 075°12'1 1.2
2017-Dec-11 15:00N 39°53' W 075°12'0 0.0
2017-Dec-11 14:30N 39°53' W 075°12'0 0.0
2017-Dec-11 14:00N 39°53' W 075°12'0 0.0
2017-Dec-11 13:31N 39°53' W 075°12'0 0.0
2017-Dec-11 13:01N 39°53' W 075°12'0 0.0
2017-Dec-11 12:30N 39°53' W 075°12'0 0.0
2017-Dec-11 12:00N 39°53' W 075°12'0 0.0
2017-Dec-11 11:30N 39°53' W 075°12'0 0.0
2017-Dec-11 11:00N 39°53' W 075°12'0 0.0
2017-Dec-11 10:30N 39°53' W 075°12'0 0.0
2017-Dec-11 10:00N 39°53' W 075°12'0 0.0
2017-Dec-11 09:30N 39°53' W 075°12'3 5.0
2017-Dec-11 09:00N 39°53' W 075°08'0 0.9
2017-Dec-11 08:30N 39°54' W 075°08'2 3.1
2017-Dec-11 08:00N 39°53' W 075°10'2 4.1
2017-Dec-11 07:31N 39°54' W 075°12'0 0.0
2017-Dec-11 07:01N 39°54' W 075°12'0 0.0
2017-Dec-11 06:31N 39°54' W 075°12'0 0.0
2017-Dec-11 06:01N 39°54' W 075°12'0 0.0
2017-Dec-11 05:30N 39°54' W 075°12'0 0.0
2017-Dec-11 05:00N 39°54' W 075°12'0 0.0
2017-Dec-11 04:31N 39°54' W 075°12'0 0.0
2017-Dec-11 04:00N 39°54' W 075°12'0 0.0
2017-Dec-11 03:30N 39°54' W 075°12'0 0.0
2017-Dec-11 03:00N 39°54' W 075°12'0 0.0
2017-Dec-11 02:30N 39°54' W 075°12'0 0.0
2017-Dec-11 02:00N 39°54' W 075°12'0 0.0
2017-Dec-11 01:30N 39°54' W 075°12'0 0.0
2017-Dec-11 01:00N 39°54' W 075°12'0 0.0
2017-Dec-11 00:30N 39°54' W 075°12'0 0.1
2017-Dec-11 00:00N 39°54' W 075°12'2 3.5
2017-Dec-10 23:30N 39°52' W 075°13'0 0.1
2017-Dec-10 23:00N 39°52' W 075°13'0 0.0
2017-Dec-10 22:30N 39°52' W 075°13'0 0.0
2017-Dec-10 22:01N 39°52' W 075°13'0 0.0
2017-Dec-10 21:31N 39°52' W 075°13'0 0.0
2017-Dec-10 21:00N 39°52' W 075°13'0 0.1
2017-Dec-10 20:30N 39°52' W 075°13'0 0.0
2017-Dec-10 20:00N 39°52' W 075°13'0 0.3
2017-Dec-10 19:30N 39°52' W 075°13'0 0.1
2017-Dec-10 19:00N 39°52' W 075°13'0 0.1
2017-Dec-10 18:30N 39°52' W 075°13'0 0.3
2017-Dec-10 18:00N 39°52' W 075°13'0 0.2
2017-Dec-10 17:31N 39°52' W 075°13'2 4.1
2017-Dec-10 17:00N 39°54' W 075°12'1 2.0
2017-Dec-10 16:30N 39°55' W 075°13'0 0.0
2017-Dec-10 16:00N 39°55' W 075°13'0 0.0
2017-Dec-10 15:30N 39°55' W 075°13'0 0.0
2017-Dec-10 15:01N 39°55' W 075°13'0 0.0
2017-Dec-10 14:30N 39°55' W 075°13'0 0.0
2017-Dec-10 14:00N 39°55' W 075°13'0 0.0
2017-Dec-10 13:30N 39°55' W 075°13'0 0.0
2017-Dec-10 13:01N 39°55' W 075°13'0 0.0
2017-Dec-10 12:30N 39°55' W 075°13'0 0.0
2017-Dec-10 12:00N 39°55' W 075°13'0 0.0
2017-Dec-10 11:30N 39°55' W 075°13'0 0.0
2017-Dec-10 11:00N 39°55' W 075°13'1 2.1
2017-Dec-10 10:30N 39°54' W 075°12'0 0.0
2017-Dec-10 10:00N 39°54' W 075°12'0 0.0
2017-Dec-10 09:31N 39°54' W 075°12'0 0.0
2017-Dec-10 09:00N 39°54' W 075°12'0 0.0
2017-Dec-10 08:30N 39°54' W 075°12'0 0.0
2017-Dec-10 08:00N 39°54' W 075°12'0 0.0
2017-Dec-10 07:30N 39°54' W 075°12'0 0.0
2017-Dec-10 07:01N 39°54' W 075°12'0 0.0
2017-Dec-10 06:31N 39°54' W 075°12'0 0.0
2017-Dec-10 06:01N 39°54' W 075°12'0 0.0
2017-Dec-10 05:31N 39°54' W 075°12'0 0.0
2017-Dec-10 05:01N 39°54' W 075°12'0 0.0
2017-Dec-10 04:31N 39°54' W 075°12'0 0.0
2017-Dec-10 04:00N 39°54' W 075°12'0 0.0
2017-Dec-10 03:30N 39°54' W 075°12'0 0.0
2017-Dec-10 03:01N 39°54' W 075°12'0 0.0
2017-Dec-10 02:30N 39°54' W 075°12'0 0.0
2017-Dec-10 02:01N 39°54' W 075°12'0 0.0
2017-Dec-10 01:30N 39°54' W 075°12'0 0.0
2017-Dec-10 01:00N 39°54' W 075°12'0 0.1
2017-Dec-10 00:31N 39°54' W 075°12'0 0.0
2017-Dec-10 00:01N 39°54' W 075°12'0 0.0
2017-Dec-09 23:30N 39°54' W 075°12'0 0.0
2017-Dec-09 23:01N 39°54' W 075°12'0 0.0
2017-Dec-09 22:30N 39°54' W 075°12'0 0.0
2017-Dec-09 22:00N 39°54' W 075°12'0 0.0
2017-Dec-09 21:30N 39°54' W 075°12'0 0.0
2017-Dec-09 21:01N 39°54' W 075°12'0 0.0
2017-Dec-09 20:31N 39°54' W 075°12'0 0.0
2017-Dec-09 20:00N 39°54' W 075°12'0 0.0
2017-Dec-09 19:30N 39°54' W 075°12'0 0.0
2017-Dec-09 19:01N 39°54' W 075°12'0 0.0
2017-Dec-09 18:31N 39°54' W 075°12'0 0.0
2017-Dec-09 18:01N 39°54' W 075°12'0 0.0
2017-Dec-09 17:31N 39°54' W 075°12'0 0.0
2017-Dec-09 17:01N 39°54' W 075°12'1 1.2
2017-Dec-09 16:30N 39°53' W 075°12'0 0.0
2017-Dec-09 16:01N 39°53' W 075°12'2 3.0
2017-Dec-09 15:30N 39°55' W 075°13'2 3.0
2017-Dec-09 15:00N 39°53' W 075°12'0 0.2
2017-Dec-09 14:31N 39°54' W 075°12'0 0.0
2017-Dec-09 14:01N 39°54' W 075°12'0 0.0
2017-Dec-09 13:31N 39°54' W 075°12'0 0.0
2017-Dec-09 13:00N 39°54' W 075°12'0 0.0
2017-Dec-09 12:31N 39°54' W 075°12'0 0.0
2017-Dec-09 12:01N 39°54' W 075°12'0 0.0
2017-Dec-09 11:31N 39°54' W 075°12'0 0.0
2017-Dec-09 11:01N 39°54' W 075°12'0 0.0
2017-Dec-09 10:31N 39°54' W 075°12'0 0.0
2017-Dec-09 10:01N 39°54' W 075°12'0 0.0
2017-Dec-09 09:31N 39°54' W 075°12'0 0.3
2017-Dec-09 09:00N 39°53' W 075°12'4 8.8
2017-Dec-09 08:30N 39°51' W 075°16'5 9.6
2017-Dec-09 08:00N 39°50' W 075°22'4 8.3
2017-Dec-09 07:30N 39°47' W 075°27'5 9.9
2017-Dec-09 07:00N 39°43' W 075°30'0 0.6
2017-Dec-09 06:30N 39°43' W 075°30'0 0.1
2017-Dec-09 06:00N 39°43' W 075°30'0 0.2
2017-Dec-09 05:30N 39°43' W 075°30'0 0.3
2017-Dec-09 05:00N 39°43' W 075°30'0 0.1
2017-Dec-09 04:30N 39°43' W 075°30'0 0.0
2017-Dec-09 04:00N 39°43' W 075°30'0 0.0
2017-Dec-09 03:30N 39°43' W 075°30'0 0.0
2017-Dec-09 03:00N 39°43' W 075°30'0 0.0
2017-Dec-09 02:30N 39°43' W 075°30'0 0.0
2017-Dec-09 02:00N 39°43' W 075°30'0 0.0
2017-Dec-09 01:30N 39°43' W 075°30'0 0.0
2017-Dec-09 01:00N 39°43' W 075°30'0 0.0
2017-Dec-09 00:30N 39°43' W 075°30'0 0.0
2017-Dec-09 00:00N 39°43' W 075°30'1 1.0
2017-Dec-08 23:31N 39°43' W 075°31'0 0.0
2017-Dec-08 23:00N 39°43' W 075°31'0 0.0
2017-Dec-08 22:30N 39°43' W 075°31'4 7.2
2017-Dec-08 22:00N 39°46' W 075°28'5 9.6
2017-Dec-08 21:30N 39°49' W 075°24'4 8.4
2017-Dec-08 21:00N 39°51' W 075°19'4 8.2
2017-Dec-08 20:30N 39°52' W 075°14'2 4.2
2017-Dec-08 20:00N 39°54' W 075°12'2 3.3
2017-Dec-08 19:30N 39°52' W 075°13'510.5
2017-Dec-08 19:00N 39°51' W 075°20'611.4
2017-Dec-08 18:30N 39°48' W 075°26'611.1
2017-Dec-08 18:00N 39°43' W 075°30'1 1.6
2017-Dec-08 17:30N 39°43' W 075°30'0 0.0
2017-Dec-08 17:00N 39°43' W 075°30'0 0.2
2017-Dec-08 16:30N 39°43' W 075°30'0 0.1
2017-Dec-08 16:00N 39°43' W 075°30'0 0.0
2017-Dec-08 15:30N 39°43' W 075°30'0 0.0
2017-Dec-08 15:00N 39°43' W 075°30'0 0.0
2017-Dec-08 14:30N 39°43' W 075°30'0 0.0
2017-Dec-08 14:00N 39°43' W 075°30'0 0.0
2017-Dec-08 13:30N 39°43' W 075°30'0 0.0
2017-Dec-08 13:00N 39°43' W 075°30'0 0.0
2017-Dec-08 12:30N 39°43' W 075°30'0 0.0
2017-Dec-08 12:00N 39°43' W 075°30'1 1.7
2017-Dec-08 11:31N 39°42' W 075°31'1 2.4
2017-Dec-08 11:00N 39°43' W 075°30'2 4.7
2017-Dec-08 10:30N 39°45' W 075°29'4 8.9
2017-Dec-08 10:00N 39°48' W 075°25'4 8.4
2017-Dec-08 09:30N 39°51' W 075°21'4 7.4
2017-Dec-08 09:00N 39°51' W 075°16'4 7.6
2017-Dec-08 08:30N 39°53' W 075°12'3 6.3
2017-Dec-08 08:01N 39°54' W 075°08'3 6.9
2017-Dec-08 07:30N 39°58' W 075°08'3 6.1
2017-Dec-08 07:01N 39°59' W 075°04'3 6.4
2017-Dec-08 06:30N 39°58' W 075°08'5 9.8
2017-Dec-08 06:01N 39°53' W 075°09'2 3.7
2017-Dec-08 05:31N 39°53' W 075°12'3 5.6
2017-Dec-08 05:01N 39°54' W 075°08'4 7.9
2017-Dec-08 04:31N 39°58' W 075°08'2 4.0
2017-Dec-08 04:01N 39°59' W 075°05'0 0.0
2017-Dec-08 03:31N 39°59' W 075°05'0 0.0
2017-Dec-08 03:01N 39°59' W 075°05'0 0.0
2017-Dec-08 02:30N 39°59' W 075°05'0 0.0
2017-Dec-08 02:01N 39°59' W 075°05'0 0.0
2017-Dec-08 01:31N 39°59' W 075°05'0 0.0
2017-Dec-08 01:00N 39°59' W 075°05'0 0.0
2017-Dec-08 00:30N 39°59' W 075°05'0 0.0
2017-Dec-08 00:00N 39°59' W 075°05'1 2.0
2017-Dec-07 23:31N 39°59' W 075°04'1 1.3
2017-Dec-07 23:00N 39°59' W 075°05'4 8.0
2017-Dec-07 22:31N 39°55' W 075°08'4 7.5
2017-Dec-07 22:00N 39°53' W 075°11'3 5.2
2017-Dec-07 21:31N 39°51' W 075°14'3 5.6
2017-Dec-07 21:00N 39°54' W 075°12'0 0.0
2017-Dec-07 20:30N 39°54' W 075°12'0 0.2
2017-Dec-07 20:00N 39°54' W 075°12'3 5.4
2017-Dec-07 19:30N 39°53' W 075°09'4 7.7
2017-Dec-07 19:00N 39°57' W 075°08'4 7.4
2017-Dec-07 18:31N 39°59' W 075°04'0 0.5
2017-Dec-07 18:01N 39°59' W 075°04'4 7.4
2017-Dec-07 17:31N 39°56' W 075°08'4 7.4
2017-Dec-07 17:00N 39°53' W 075°10'4 8.5
2017-Dec-07 16:31N 39°51' W 075°15'4 8.1
2017-Dec-07 16:00N 39°51' W 075°20'4 7.7
2017-Dec-07 15:31N 39°49' W 075°24'4 7.2
2017-Dec-07 15:00N 39°46' W 075°28'4 7.1
2017-Dec-07 14:30N 39°43' W 075°30'3 6.7
2017-Dec-07 14:00N 39°40' W 075°32'3 6.7
2017-Dec-07 13:30N 39°38' W 075°34'3 6.5
2017-Dec-07 13:00N 39°35' W 075°33'4 7.7
2017-Dec-07 12:30N 39°33' W 075°38'510.0
2017-Dec-07 12:00N 39°32' W 075°44'4 8.0
2017-Dec-07 11:30N 39°32' W 075°49'4 8.2
2017-Dec-07 10:59N 39°30' W 075°55'4 7.8
2017-Dec-07 10:31N 39°28' W 075°58'4 8.2
2017-Dec-07 10:00N 39°25' W 076°02'4 7.5
2017-Dec-07 09:30N 39°23' W 076°06'4 7.0
2017-Dec-07 09:00N 39°21' W 076°10'3 7.0
2017-Dec-07 08:30N 39°19' W 076°13'4 7.2
2017-Dec-07 07:53N 39°14' W 076°14'7 7.5
2017-Dec-07 06:56N 39°09' W 076°20'4 8.7
2017-Dec-07 06:30N 39°10' W 076°25'4 8.9
2017-Dec-07 06:00N 39°12' W 076°30'4 7.7
2017-Dec-07 05:30N 39°13' W 076°34'0 0.9
2017-Dec-07 05:00N 39°13' W 076°35'0 0.0
2017-Dec-07 04:13N 39°13' W 076°35'0 0.0
2017-Dec-07 04:00N 39°13' W 076°35'0 0.0
2017-Dec-07 03:24N 39°13' W 076°35'0 0.0
2017-Dec-07 02:13N 39°13' W 076°35'0 0.0
2017-Dec-07 02:00N 39°13' W 076°35'0 0.0
2017-Dec-07 01:19N 39°13' W 076°35'0 0.0
2017-Dec-07 00:54N 39°13' W 076°35'0 0.0
2017-Dec-06 23:12N 39°13' W 076°35'1 5.1
2017-Dec-06 23:00N 39°13' W 076°34'1 2.7
2017-Dec-06 22:30N 39°15' W 076°34'0 0.0
2017-Dec-06 22:00N 39°15' W 076°34'0 0.0
2017-Dec-06 21:30N 39°15' W 076°34'0 0.0
2017-Dec-06 21:00N 39°15' W 076°34'  

Dump ship's entire track history